sensor_id;sensor_type;location;lat;lon;timestamp;P1;durP1;ratioP1;P2;durP2;ratioP2
66212;SDS011;53015;50.046;8.238;2024-03-02T00:00:00;16.17;;;8.95;;
66212;SDS011;53015;50.046;8.238;2024-03-02T00:02:28;18.88;;;9.70;;
66212;SDS011;53015;50.046;8.238;2024-03-02T00:04:53;14.05;;;8.82;;
66212;SDS011;53015;50.046;8.238;2024-03-02T00:07:18;15.32;;;8.43;;
66212;SDS011;53015;50.046;8.238;2024-03-02T00:09:44;16.02;;;8.35;;
66212;SDS011;53015;50.046;8.238;2024-03-02T00:12:10;12.88;;;7.25;;
66212;SDS011;53015;50.046;8.238;2024-03-02T00:14:40;12.07;;;7.22;;
66212;SDS011;53015;50.046;8.238;2024-03-02T00:17:08;12.60;;;7.30;;
66212;SDS011;53015;50.046;8.238;2024-03-02T00:19:44;10.00;;;6.68;;
66212;SDS011;53015;50.046;8.238;2024-03-02T00:22:10;11.05;;;6.68;;
66212;SDS011;53015;50.046;8.238;2024-03-02T00:24:36;13.88;;;6.78;;
66212;SDS011;53015;50.046;8.238;2024-03-02T00:27:03;11.82;;;6.97;;
66212;SDS011;53015;50.046;8.238;2024-03-02T00:29:32;9.55;;;6.57;;
66212;SDS011;53015;50.046;8.238;2024-03-02T00:31:58;8.45;;;5.80;;
66212;SDS011;53015;50.046;8.238;2024-03-02T00:34:23;9.90;;;6.05;;
66212;SDS011;53015;50.046;8.238;2024-03-02T00:36:51;11.60;;;6.85;;
66212;SDS011;53015;50.046;8.238;2024-03-02T00:39:17;10.98;;;6.50;;
66212;SDS011;53015;50.046;8.238;2024-03-02T00:41:43;10.60;;;7.00;;
66212;SDS011;53015;50.046;8.238;2024-03-02T00:44:12;10.35;;;7.07;;
66212;SDS011;53015;50.046;8.238;2024-03-02T00:46:38;11.55;;;6.85;;
66212;SDS011;53015;50.046;8.238;2024-03-02T00:49:05;11.02;;;6.80;;
66212;SDS011;53015;50.046;8.238;2024-03-02T00:51:44;11.32;;;6.50;;
66212;SDS011;53015;50.046;8.238;2024-03-02T00:54:13;10.05;;;6.53;;
66212;SDS011;53015;50.046;8.238;2024-03-02T00:56:40;10.07;;;6.88;;
66212;SDS011;53015;50.046;8.238;2024-03-02T00:59:07;9.27;;;6.25;;
66212;SDS011;53015;50.046;8.238;2024-03-02T01:01:32;11.27;;;6.68;;
66212;SDS011;53015;50.046;8.238;2024-03-02T01:03:58;12.35;;;6.82;;
66212;SDS011;53015;50.046;8.238;2024-03-02T01:06:24;11.50;;;6.80;;
66212;SDS011;53015;50.046;8.238;2024-03-02T01:08:50;10.63;;;6.20;;
66212;SDS011;53015;50.046;8.238;2024-03-02T01:11:17;10.30;;;6.40;;
66212;SDS011;53015;50.046;8.238;2024-03-02T01:13:43;13.00;;;7.30;;
66212;SDS011;53015;50.046;8.238;2024-03-02T01:16:09;14.18;;;6.43;;
66212;SDS011;53015;50.046;8.238;2024-03-02T01:18:34;13.68;;;6.95;;
66212;SDS011;53015;50.046;8.238;2024-03-02T01:21:00;11.13;;;6.35;;
66212;SDS011;53015;50.046;8.238;2024-03-02T01:23:26;9.73;;;6.43;;
66212;SDS011;53015;50.046;8.238;2024-03-02T01:25:51;10.13;;;6.38;;
66212;SDS011;53015;50.046;8.238;2024-03-02T01:28:18;11.48;;;6.45;;
66212;SDS011;53015;50.046;8.238;2024-03-02T01:30:44;9.18;;;6.32;;
66212;SDS011;53015;50.046;8.238;2024-03-02T01:33:10;11.15;;;6.38;;
66212;SDS011;53015;50.046;8.238;2024-03-02T01:35:36;11.05;;;6.88;;
66212;SDS011;53015;50.046;8.238;2024-03-02T01:38:01;9.55;;;6.25;;
66212;SDS011;53015;50.046;8.238;2024-03-02T01:40:27;11.40;;;6.80;;
66212;SDS011;53015;50.046;8.238;2024-03-02T01:42:53;10.55;;;6.22;;
66212;SDS011;53015;50.046;8.238;2024-03-02T01:45:20;10.70;;;6.35;;
66212;SDS011;53015;50.046;8.238;2024-03-02T01:47:46;9.80;;;6.20;;
66212;SDS011;53015;50.046;8.238;2024-03-02T01:50:11;11.45;;;6.45;;
66212;SDS011;53015;50.046;8.238;2024-03-02T01:52:37;10.13;;;7.13;;
66212;SDS011;53015;50.046;8.238;2024-03-02T01:55:03;14.82;;;7.30;;
66212;SDS011;53015;50.046;8.238;2024-03-02T01:57:29;13.05;;;6.82;;
66212;SDS011;53015;50.046;8.238;2024-03-02T01:59:55;9.95;;;7.07;;
66212;SDS011;53015;50.046;8.238;2024-03-02T02:02:22;11.65;;;6.95;;
66212;SDS011;53015;50.046;8.238;2024-03-02T02:04:48;10.80;;;6.63;;
66212;SDS011;53015;50.046;8.238;2024-03-02T02:07:13;12.65;;;7.25;;
66212;SDS011;53015;50.046;8.238;2024-03-02T02:09:39;12.10;;;7.00;;
66212;SDS011;53015;50.046;8.238;2024-03-02T02:12:06;14.38;;;7.88;;
66212;SDS011;53015;50.046;8.238;2024-03-02T02:14:32;12.73;;;7.65;;
66212;SDS011;53015;50.046;8.238;2024-03-02T02:16:58;12.00;;;7.82;;
66212;SDS011;53015;50.046;8.238;2024-03-02T02:19:27;13.52;;;8.15;;
66212;SDS011;53015;50.046;8.238;2024-03-02T02:21:56;12.75;;;7.78;;
66212;SDS011;53015;50.046;8.238;2024-03-02T02:24:22;12.95;;;7.90;;
66212;SDS011;53015;50.046;8.238;2024-03-02T02:26:48;11.43;;;7.68;;
66212;SDS011;53015;50.046;8.238;2024-03-02T02:29:13;12.73;;;7.85;;
66212;SDS011;53015;50.046;8.238;2024-03-02T02:31:39;14.25;;;8.85;;
66212;SDS011;53015;50.046;8.238;2024-03-02T02:34:06;16.02;;;8.80;;
66212;SDS011;53015;50.046;8.238;2024-03-02T02:36:32;15.43;;;8.90;;
66212;SDS011;53015;50.046;8.238;2024-03-02T02:39:00;14.23;;;8.55;;
66212;SDS011;53015;50.046;8.238;2024-03-02T02:41:28;13.48;;;8.70;;
66212;SDS011;53015;50.046;8.238;2024-03-02T02:43:54;15.02;;;9.05;;
66212;SDS011;53015;50.046;8.238;2024-03-02T02:46:20;13.60;;;8.32;;
66212;SDS011;53015;50.046;8.238;2024-03-02T02:48:46;15.40;;;8.32;;
66212;SDS011;53015;50.046;8.238;2024-03-02T02:51:11;12.07;;;8.10;;
66212;SDS011;53015;50.046;8.238;2024-03-02T02:53:37;13.65;;;8.88;;
66212;SDS011;53015;50.046;8.238;2024-03-02T02:56:04;13.70;;;8.27;;
66212;SDS011;53015;50.046;8.238;2024-03-02T02:58:30;15.25;;;8.18;;
66212;SDS011;53015;50.046;8.238;2024-03-02T03:00:56;14.50;;;8.55;;
66212;SDS011;53015;50.046;8.238;2024-03-02T03:03:22;15.32;;;8.85;;
66212;SDS011;53015;50.046;8.238;2024-03-02T03:05:48;13.90;;;9.07;;
66212;SDS011;53015;50.046;8.238;2024-03-02T03:08:14;13.93;;;8.68;;
66212;SDS011;53015;50.046;8.238;2024-03-02T03:10:39;16.27;;;8.68;;
66212;SDS011;53015;50.046;8.238;2024-03-02T03:13:06;16.55;;;9.50;;
66212;SDS011;53015;50.046;8.238;2024-03-02T03:15:32;14.23;;;9.02;;
66212;SDS011;53015;50.046;8.238;2024-03-02T03:17:57;15.15;;;9.38;;
66212;SDS011;53015;50.046;8.238;2024-03-02T03:20:23;17.42;;;9.77;;
66212;SDS011;53015;50.046;8.238;2024-03-02T03:22:49;17.40;;;9.40;;
66212;SDS011;53015;50.046;8.238;2024-03-02T03:25:14;14.65;;;9.63;;
66212;SDS011;53015;50.046;8.238;2024-03-02T03:27:40;18.20;;;9.82;;
66212;SDS011;53015;50.046;8.238;2024-03-02T03:30:08;16.85;;;10.68;;
66212;SDS011;53015;50.046;8.238;2024-03-02T03:32:35;16.55;;;9.90;;
66212;SDS011;53015;50.046;8.238;2024-03-02T03:35:01;18.95;;;10.25;;
66212;SDS011;53015;50.046;8.238;2024-03-02T03:37:27;18.73;;;9.60;;
66212;SDS011;53015;50.046;8.238;2024-03-02T03:39:52;15.68;;;9.80;;
66212;SDS011;53015;50.046;8.238;2024-03-02T03:42:18;16.92;;;9.60;;
66212;SDS011;53015;50.046;8.238;2024-03-02T03:44:44;14.85;;;9.48;;
66212;SDS011;53015;50.046;8.238;2024-03-02T03:47:12;17.20;;;10.82;;
66212;SDS011;53015;50.046;8.238;2024-03-02T03:49:38;17.38;;;10.57;;
66212;SDS011;53015;50.046;8.238;2024-03-02T03:52:04;18.30;;;10.82;;
66212;SDS011;53015;50.046;8.238;2024-03-02T03:54:29;17.75;;;10.93;;
66212;SDS011;53015;50.046;8.238;2024-03-02T03:56:55;17.38;;;10.45;;
66212;SDS011;53015;50.046;8.238;2024-03-02T03:59:21;19.73;;;11.07;;
66212;SDS011;53015;50.046;8.238;2024-03-02T04:01:47;19.05;;;10.05;;
66212;SDS011;53015;50.046;8.238;2024-03-02T04:04:14;18.50;;;11.40;;
66212;SDS011;53015;50.046;8.238;2024-03-02T04:06:40;18.40;;;11.15;;
66212;SDS011;53015;50.046;8.238;2024-03-02T04:09:06;18.15;;;11.20;;
66212;SDS011;53015;50.046;8.238;2024-03-02T04:11:31;20.45;;;11.13;;
66212;SDS011;53015;50.046;8.238;2024-03-02T04:13:57;17.13;;;11.25;;
66212;SDS011;53015;50.046;8.238;2024-03-02T04:16:23;22.95;;;11.85;;
66212;SDS011;53015;50.046;8.238;2024-03-02T04:18:48;18.98;;;11.63;;
66212;SDS011;53015;50.046;8.238;2024-03-02T04:21:15;16.70;;;10.18;;
66212;SDS011;53015;50.046;8.238;2024-03-02T04:23:41;16.48;;;10.35;;
66212;SDS011;53015;50.046;8.238;2024-03-02T04:26:06;21.40;;;12.13;;
66212;SDS011;53015;50.046;8.238;2024-03-02T04:28:32;42.70;;;21.02;;
66212;SDS011;53015;50.046;8.238;2024-03-02T04:30:57;24.45;;;13.80;;
66212;SDS011;53015;50.046;8.238;2024-03-02T04:33:23;23.30;;;12.73;;
66212;SDS011;53015;50.046;8.238;2024-03-02T04:35:49;20.10;;;11.23;;
66212;SDS011;53015;50.046;8.238;2024-03-02T04:38:16;18.83;;;11.43;;
66212;SDS011;53015;50.046;8.238;2024-03-02T04:40:41;19.67;;;11.63;;
66212;SDS011;53015;50.046;8.238;2024-03-02T04:43:06;20.33;;;11.63;;
66212;SDS011;53015;50.046;8.238;2024-03-02T04:45:32;20.00;;;10.93;;
66212;SDS011;53015;50.046;8.238;2024-03-02T04:47:58;20.10;;;12.05;;
66212;SDS011;53015;50.046;8.238;2024-03-02T04:50:24;17.80;;;10.88;;
66212;SDS011;53015;50.046;8.238;2024-03-02T04:52:50;19.73;;;11.55;;
66212;SDS011;53015;50.046;8.238;2024-03-02T04:55:17;20.70;;;12.10;;
66212;SDS011;53015;50.046;8.238;2024-03-02T04:57:42;18.67;;;11.35;;
66212;SDS011;53015;50.046;8.238;2024-03-02T05:00:08;19.77;;;11.80;;
66212;SDS011;53015;50.046;8.238;2024-03-02T05:02:34;20.58;;;11.98;;
66212;SDS011;53015;50.046;8.238;2024-03-02T05:05:00;22.88;;;11.93;;
66212;SDS011;53015;50.046;8.238;2024-03-02T05:07:25;19.38;;;11.63;;
66212;SDS011;53015;50.046;8.238;2024-03-02T05:09:51;21.80;;;11.68;;
66212;SDS011;53015;50.046;8.238;2024-03-02T05:12:18;19.95;;;12.43;;
66212;SDS011;53015;50.046;8.238;2024-03-02T05:14:45;19.10;;;11.32;;
66212;SDS011;53015;50.046;8.238;2024-03-02T05:17:11;19.40;;;11.70;;
66212;SDS011;53015;50.046;8.238;2024-03-02T05:19:36;17.48;;;11.20;;
66212;SDS011;53015;50.046;8.238;2024-03-02T05:22:02;18.25;;;11.07;;
66212;SDS011;53015;50.046;8.238;2024-03-02T05:24:28;16.50;;;10.50;;
66212;SDS011;53015;50.046;8.238;2024-03-02T05:26:53;17.90;;;11.13;;
66212;SDS011;53015;50.046;8.238;2024-03-02T05:29:20;18.88;;;11.48;;
66212;SDS011;53015;50.046;8.238;2024-03-02T05:31:46;18.38;;;11.13;;
66212;SDS011;53015;50.046;8.238;2024-03-02T05:34:11;19.75;;;10.95;;
66212;SDS011;53015;50.046;8.238;2024-03-02T05:36:37;19.60;;;10.52;;
66212;SDS011;53015;50.046;8.238;2024-03-02T05:39:03;19.13;;;11.15;;
66212;SDS011;53015;50.046;8.238;2024-03-02T05:41:28;21.73;;;11.35;;
66212;SDS011;53015;50.046;8.238;2024-03-02T05:43:54;19.02;;;11.07;;
66212;SDS011;53015;50.046;8.238;2024-03-02T05:46:21;17.65;;;11.63;;
66212;SDS011;53015;50.046;8.238;2024-03-02T05:48:46;18.38;;;10.45;;
66212;SDS011;53015;50.046;8.238;2024-03-02T05:51:12;17.88;;;10.57;;
66212;SDS011;53015;50.046;8.238;2024-03-02T05:53:37;18.17;;;10.65;;
66212;SDS011;53015;50.046;8.238;2024-03-02T05:56:03;18.77;;;10.30;;
66212;SDS011;53015;50.046;8.238;2024-03-02T05:58:29;16.15;;;9.85;;
66212;SDS011;53015;50.046;8.238;2024-03-02T06:00:55;15.85;;;9.65;;
66212;SDS011;53015;50.046;8.238;2024-03-02T06:03:22;19.55;;;10.77;;
66212;SDS011;53015;50.046;8.238;2024-03-02T06:05:47;16.00;;;10.32;;
66212;SDS011;53015;50.046;8.238;2024-03-02T06:08:13;19.92;;;10.48;;
66212;SDS011;53015;50.046;8.238;2024-03-02T06:10:38;17.25;;;9.65;;
66212;SDS011;53015;50.046;8.238;2024-03-02T06:13:04;17.92;;;10.18;;
66212;SDS011;53015;50.046;8.238;2024-03-02T06:15:29;17.27;;;9.93;;
66212;SDS011;53015;50.046;8.238;2024-03-02T06:17:55;17.88;;;10.38;;
66212;SDS011;53015;50.046;8.238;2024-03-02T06:20:22;17.80;;;11.70;;
66212;SDS011;53015;50.046;8.238;2024-03-02T06:22:47;18.27;;;10.90;;
66212;SDS011;53015;50.046;8.238;2024-03-02T06:25:13;14.13;;;9.10;;
66212;SDS011;53015;50.046;8.238;2024-03-02T06:27:38;13.23;;;9.20;;
66212;SDS011;53015;50.046;8.238;2024-03-02T06:30:04;14.27;;;8.75;;
66212;SDS011;53015;50.046;8.238;2024-03-02T06:32:31;14.30;;;8.82;;
66212;SDS011;53015;50.046;8.238;2024-03-02T06:34:57;15.93;;;9.57;;
66212;SDS011;53015;50.046;8.238;2024-03-02T06:37:24;15.68;;;9.20;;
66212;SDS011;53015;50.046;8.238;2024-03-02T06:39:49;16.50;;;9.60;;
66212;SDS011;53015;50.046;8.238;2024-03-02T06:42:15;14.65;;;9.13;;
66212;SDS011;53015;50.046;8.238;2024-03-02T06:44:40;13.23;;;9.23;;
66212;SDS011;53015;50.046;8.238;2024-03-02T06:47:06;15.00;;;9.10;;
66212;SDS011;53015;50.046;8.238;2024-03-02T06:49:31;18.52;;;8.93;;
66212;SDS011;53015;50.046;8.238;2024-03-02T06:51:57;13.88;;;8.90;;
66212;SDS011;53015;50.046;8.238;2024-03-02T06:54:24;14.35;;;8.50;;
66212;SDS011;53015;50.046;8.238;2024-03-02T06:56:49;17.60;;;8.70;;
66212;SDS011;53015;50.046;8.238;2024-03-02T06:59:15;15.50;;;8.57;;
66212;SDS011;53015;50.046;8.238;2024-03-02T07:01:41;14.35;;;8.65;;
66212;SDS011;53015;50.046;8.238;2024-03-02T07:04:07;14.20;;;7.93;;
66212;SDS011;53015;50.046;8.238;2024-03-02T07:06:32;12.80;;;7.88;;
66212;SDS011;53015;50.046;8.238;2024-03-02T07:08:58;13.73;;;8.27;;
66212;SDS011;53015;50.046;8.238;2024-03-02T07:11:25;14.23;;;9.65;;
66212;SDS011;53015;50.046;8.238;2024-03-02T07:13:50;15.23;;;9.15;;
66212;SDS011;53015;50.046;8.238;2024-03-02T07:16:16;17.00;;;8.95;;
66212;SDS011;53015;50.046;8.238;2024-03-02T07:18:41;16.80;;;8.88;;
66212;SDS011;53015;50.046;8.238;2024-03-02T07:21:07;14.23;;;8.85;;
66212;SDS011;53015;50.046;8.238;2024-03-02T07:23:33;14.70;;;8.70;;
66212;SDS011;53015;50.046;8.238;2024-03-02T07:25:59;13.00;;;7.95;;
66212;SDS011;53015;50.046;8.238;2024-03-02T07:28:28;14.93;;;8.95;;
66212;SDS011;53015;50.046;8.238;2024-03-02T07:30:57;13.82;;;8.10;;
66212;SDS011;53015;50.046;8.238;2024-03-02T07:33:23;12.60;;;7.95;;
66212;SDS011;53015;50.046;8.238;2024-03-02T07:35:49;16.30;;;9.05;;
66212;SDS011;53015;50.046;8.238;2024-03-02T07:38:15;14.35;;;9.43;;
66212;SDS011;53015;50.046;8.238;2024-03-02T07:40:40;14.02;;;8.88;;
66212;SDS011;53015;50.046;8.238;2024-03-02T07:43:06;15.95;;;9.43;;
66212;SDS011;53015;50.046;8.238;2024-03-02T07:45:33;15.07;;;8.73;;
66212;SDS011;53015;50.046;8.238;2024-03-02T07:47:59;17.38;;;9.13;;
66212;SDS011;53015;50.046;8.238;2024-03-02T07:50:25;16.60;;;9.90;;
66212;SDS011;53015;50.046;8.238;2024-03-02T07:52:50;13.70;;;9.02;;
66212;SDS011;53015;50.046;8.238;2024-03-02T07:55:16;27.92;;;12.65;;
66212;SDS011;53015;50.046;8.238;2024-03-02T07:57:41;16.27;;;9.90;;
66212;SDS011;53015;50.046;8.238;2024-03-02T08:00:07;16.52;;;9.57;;
66212;SDS011;53015;50.046;8.238;2024-03-02T08:02:35;13.73;;;8.48;;
66212;SDS011;53015;50.046;8.238;2024-03-02T08:05:01;15.23;;;7.63;;
66212;SDS011;53015;50.046;8.238;2024-03-02T08:07:27;15.75;;;7.97;;
66212;SDS011;53015;50.046;8.238;2024-03-02T08:09:53;13.77;;;7.70;;
66212;SDS011;53015;50.046;8.238;2024-03-02T08:12:19;12.48;;;6.90;;
66212;SDS011;53015;50.046;8.238;2024-03-02T08:14:44;14.50;;;7.65;;
66212;SDS011;53015;50.046;8.238;2024-03-02T08:17:10;13.80;;;8.68;;
66212;SDS011;53015;50.046;8.238;2024-03-02T08:19:37;18.08;;;9.55;;
66212;SDS011;53015;50.046;8.238;2024-03-02T08:22:03;19.52;;;8.73;;
66212;SDS011;53015;50.046;8.238;2024-03-02T08:24:28;20.38;;;9.63;;
66212;SDS011;53015;50.046;8.238;2024-03-02T08:26:54;14.85;;;8.80;;
66212;SDS011;53015;50.046;8.238;2024-03-02T08:29:20;16.35;;;9.07;;
66212;SDS011;53015;50.046;8.238;2024-03-02T08:31:46;16.92;;;8.93;;
66212;SDS011;53015;50.046;8.238;2024-03-02T08:34:11;17.88;;;8.57;;
66212;SDS011;53015;50.046;8.238;2024-03-02T08:36:38;13.63;;;7.90;;
66212;SDS011;53015;50.046;8.238;2024-03-02T08:39:04;12.65;;;7.85;;
66212;SDS011;53015;50.046;8.238;2024-03-02T08:41:29;14.80;;;7.88;;
66212;SDS011;53015;50.046;8.238;2024-03-02T08:43:55;13.05;;;7.57;;
66212;SDS011;53015;50.046;8.238;2024-03-02T08:46:20;11.38;;;7.13;;
66212;SDS011;53015;50.046;8.238;2024-03-02T08:48:46;11.68;;;7.22;;
66212;SDS011;53015;50.046;8.238;2024-03-02T08:51:12;10.05;;;6.70;;
66212;SDS011;53015;50.046;8.238;2024-03-02T08:53:39;12.05;;;7.07;;
66212;SDS011;53015;50.046;8.238;2024-03-02T08:56:05;11.07;;;6.85;;
66212;SDS011;53015;50.046;8.238;2024-03-02T08:58:31;11.02;;;6.68;;
66212;SDS011;53015;50.046;8.238;2024-03-02T09:00:57;14.90;;;6.75;;
66212;SDS011;53015;50.046;8.238;2024-03-02T09:03:22;10.77;;;6.85;;
66212;SDS011;53015;50.046;8.238;2024-03-02T09:05:48;11.57;;;6.82;;
66212;SDS011;53015;50.046;8.238;2024-03-02T09:08:14;11.73;;;7.38;;
66212;SDS011;53015;50.046;8.238;2024-03-02T09:10:41;11.05;;;7.63;;
66212;SDS011;53015;50.046;8.238;2024-03-02T09:13:06;10.63;;;6.60;;
66212;SDS011;53015;50.046;8.238;2024-03-02T09:15:32;10.27;;;7.07;;
66212;SDS011;53015;50.046;8.238;2024-03-02T09:17:58;11.63;;;6.85;;
66212;SDS011;53015;50.046;8.238;2024-03-02T09:20:23;10.15;;;6.80;;
66212;SDS011;53015;50.046;8.238;2024-03-02T09:22:49;11.90;;;7.03;;
66212;SDS011;53015;50.046;8.238;2024-03-02T09:25:14;9.85;;;6.88;;
66212;SDS011;53015;50.046;8.238;2024-03-02T09:27:42;10.98;;;7.18;;
66212;SDS011;53015;50.046;8.238;2024-03-02T09:30:08;14.18;;;7.63;;
66212;SDS011;53015;50.046;8.238;2024-03-02T09:32:34;12.60;;;7.63;;
66212;SDS011;53015;50.046;8.238;2024-03-02T09:35:00;14.15;;;7.53;;
66212;SDS011;53015;50.046;8.238;2024-03-02T09:37:25;12.02;;;7.63;;
66212;SDS011;53015;50.046;8.238;2024-03-02T09:39:51;9.38;;;6.85;;
66212;SDS011;53015;50.046;8.238;2024-03-02T09:42:16;11.32;;;7.18;;
66212;SDS011;53015;50.046;8.238;2024-03-02T09:44:44;13.02;;;7.55;;
66212;SDS011;53015;50.046;8.238;2024-03-02T09:47:10;11.73;;;7.60;;
66212;SDS011;53015;50.046;8.238;2024-03-02T09:49:36;11.45;;;7.03;;
66212;SDS011;53015;50.046;8.238;2024-03-02T09:52:01;10.77;;;6.75;;
66212;SDS011;53015;50.046;8.238;2024-03-02T09:54:29;11.73;;;7.40;;
66212;SDS011;53015;50.046;8.238;2024-03-02T09:56:55;8.75;;;6.20;;
66212;SDS011;53015;50.046;8.238;2024-03-02T09:59:20;9.38;;;6.32;;
66212;SDS011;53015;50.046;8.238;2024-03-02T10:01:57;12.07;;;7.25;;
66212;SDS011;53015;50.046;8.238;2024-03-02T10:04:24;14.02;;;7.40;;
66212;SDS011;53015;50.046;8.238;2024-03-02T10:06:50;10.95;;;6.72;;
66212;SDS011;53015;50.046;8.238;2024-03-02T10:09:21;10.07;;;6.85;;
66212;SDS011;53015;50.046;8.238;2024-03-02T10:11:52;11.63;;;7.20;;
66212;SDS011;53015;50.046;8.238;2024-03-02T10:14:18;11.73;;;7.15;;
66212;SDS011;53015;50.046;8.238;2024-03-02T10:16:44;11.60;;;7.03;;
66212;SDS011;53015;50.046;8.238;2024-03-02T10:19:20;8.15;;;6.20;;
66212;SDS011;53015;50.046;8.238;2024-03-02T10:21:46;10.82;;;6.10;;
66212;SDS011;53015;50.046;8.238;2024-03-02T10:24:12;9.55;;;6.50;;
66212;SDS011;53015;50.046;8.238;2024-03-02T10:26:38;10.48;;;6.90;;
66212;SDS011;53015;50.046;8.238;2024-03-02T10:29:04;10.60;;;6.57;;
66212;SDS011;53015;50.046;8.238;2024-03-02T10:31:30;10.30;;;6.70;;
66212;SDS011;53015;50.046;8.238;2024-03-02T10:33:55;10.77;;;6.78;;
66212;SDS011;53015;50.046;8.238;2024-03-02T10:36:23;8.93;;;6.53;;
66212;SDS011;53015;50.046;8.238;2024-03-02T10:38:50;11.23;;;6.82;;
66212;SDS011;53015;50.046;8.238;2024-03-02T10:41:16;9.73;;;6.70;;
66212;SDS011;53015;50.046;8.238;2024-03-02T10:43:42;11.30;;;7.18;;
66212;SDS011;53015;50.046;8.238;2024-03-02T10:46:08;11.65;;;6.53;;
66212;SDS011;53015;50.046;8.238;2024-03-02T10:48:36;9.80;;;6.05;;
66212;SDS011;53015;50.046;8.238;2024-03-02T10:51:04;11.00;;;6.68;;
66212;SDS011;53015;50.046;8.238;2024-03-02T10:53:31;9.40;;;5.88;;
66212;SDS011;53015;50.046;8.238;2024-03-02T10:55:57;8.95;;;6.15;;
66212;SDS011;53015;50.046;8.238;2024-03-02T10:58:23;12.52;;;6.63;;
66212;SDS011;53015;50.046;8.238;2024-03-02T11:00:55;9.05;;;6.07;;
66212;SDS011;53015;50.046;8.238;2024-03-02T11:03:22;12.32;;;6.63;;
66212;SDS011;53015;50.046;8.238;2024-03-02T11:05:48;9.85;;;6.10;;
66212;SDS011;53015;50.046;8.238;2024-03-02T11:08:18;13.20;;;6.13;;
66212;SDS011;53015;50.046;8.238;2024-03-02T11:10:48;10.88;;;6.50;;
66212;SDS011;53015;50.046;8.238;2024-03-02T11:13:15;10.45;;;6.88;;
66212;SDS011;53015;50.046;8.238;2024-03-02T11:15:42;11.55;;;6.32;;
66212;SDS011;53015;50.046;8.238;2024-03-02T11:18:09;10.30;;;6.60;;
66212;SDS011;53015;50.046;8.238;2024-03-02T11:20:37;11.52;;;6.65;;
66212;SDS011;53015;50.046;8.238;2024-03-02T11:23:07;10.35;;;6.07;;
66212;SDS011;53015;50.046;8.238;2024-03-02T11:25:34;8.75;;;5.68;;
66212;SDS011;53015;50.046;8.238;2024-03-02T11:28:02;10.13;;;6.25;;
66212;SDS011;53015;50.046;8.238;2024-03-02T11:33:27;8.13;;;5.78;;
66212;SDS011;53015;50.046;8.238;2024-03-02T11:35:52;10.05;;;6.53;;
66212;SDS011;53015;50.046;8.238;2024-03-02T11:38:18;10.85;;;6.22;;
66212;SDS011;53015;50.046;8.238;2024-03-02T11:40:44;9.27;;;5.75;;
66212;SDS011;53015;50.046;8.238;2024-03-02T11:43:11;10.15;;;6.32;;
66212;SDS011;53015;50.046;8.238;2024-03-02T11:45:37;8.80;;;5.88;;
66212;SDS011;53015;50.046;8.238;2024-03-02T11:48:04;8.52;;;5.40;;
66212;SDS011;53015;50.046;8.238;2024-03-02T11:50:33;8.43;;;4.85;;
66212;SDS011;53015;50.046;8.238;2024-03-02T11:53:00;9.07;;;4.80;;
66212;SDS011;53015;50.046;8.238;2024-03-02T11:55:26;10.55;;;5.72;;
66212;SDS011;53015;50.046;8.238;2024-03-02T11:57:52;7.63;;;5.35;;
66212;SDS011;53015;50.046;8.238;2024-03-02T12:00:19;8.20;;;5.45;;
66212;SDS011;53015;50.046;8.238;2024-03-02T12:02:45;9.90;;;5.60;;
66212;SDS011;53015;50.046;8.238;2024-03-02T12:05:12;9.95;;;5.88;;
66212;SDS011;53015;50.046;8.238;2024-03-02T12:07:39;8.05;;;5.75;;
66212;SDS011;53015;50.046;8.238;2024-03-02T12:10:05;11.38;;;5.82;;
66212;SDS011;53015;50.046;8.238;2024-03-02T12:12:30;10.80;;;5.95;;
66212;SDS011;53015;50.046;8.238;2024-03-02T12:14:56;8.00;;;5.60;;
66212;SDS011;53015;50.046;8.238;2024-03-02T12:17:23;8.02;;;5.75;;
66212;SDS011;53015;50.046;8.238;2024-03-02T12:19:49;8.32;;;5.55;;
66212;SDS011;53015;50.046;8.238;2024-03-02T12:22:15;10.27;;;5.90;;
66212;SDS011;53015;50.046;8.238;2024-03-02T12:24:41;7.20;;;5.00;;
66212;SDS011;53015;50.046;8.238;2024-03-02T12:27:07;6.60;;;4.75;;
66212;SDS011;53015;50.046;8.238;2024-03-02T12:29:33;7.70;;;5.68;;
66212;SDS011;53015;50.046;8.238;2024-03-02T12:31:59;7.78;;;5.43;;
66212;SDS011;53015;50.046;8.238;2024-03-02T12:34:26;6.47;;;4.80;;
66212;SDS011;53015;50.046;8.238;2024-03-02T12:36:52;8.90;;;4.65;;
66212;SDS011;53015;50.046;8.238;2024-03-02T12:39:17;8.23;;;5.05;;
66212;SDS011;53015;50.046;8.238;2024-03-02T12:41:44;6.47;;;5.10;;
66212;SDS011;53015;50.046;8.238;2024-03-02T12:44:11;8.60;;;5.03;;
66212;SDS011;53015;50.046;8.238;2024-03-02T12:46:37;6.18;;;4.13;;
66212;SDS011;53015;50.046;8.238;2024-03-02T12:49:07;6.32;;;4.15;;
66212;SDS011;53015;50.046;8.238;2024-03-02T12:51:35;6.90;;;4.53;;
66212;SDS011;53015;50.046;8.238;2024-03-02T12:54:00;6.30;;;4.15;;
66212;SDS011;53015;50.046;8.238;2024-03-02T12:56:26;7.78;;;4.10;;
66212;SDS011;53015;50.046;8.238;2024-03-02T12:58:53;7.13;;;4.40;;
66212;SDS011;53015;50.046;8.238;2024-03-02T13:01:18;6.28;;;4.28;;
66212;SDS011;53015;50.046;8.238;2024-03-02T13:03:44;6.45;;;4.90;;
66212;SDS011;53015;50.046;8.238;2024-03-02T13:06:10;7.03;;;4.18;;
66212;SDS011;53015;50.046;8.238;2024-03-02T13:08:37;6.03;;;4.10;;
66212;SDS011;53015;50.046;8.238;2024-03-02T13:11:03;6.50;;;4.43;;
66212;SDS011;53015;50.046;8.238;2024-03-02T13:13:30;9.68;;;4.32;;
66212;SDS011;53015;50.046;8.238;2024-03-02T13:15:55;5.38;;;3.92;;
66212;SDS011;53015;50.046;8.238;2024-03-02T13:18:21;7.15;;;3.40;;
66212;SDS011;53015;50.046;8.238;2024-03-02T13:20:47;4.47;;;3.15;;
66212;SDS011;53015;50.046;8.238;2024-03-02T13:23:12;4.95;;;2.80;;
66212;SDS011;53015;50.046;8.238;2024-03-02T13:25:39;4.38;;;2.97;;
66212;SDS011;53015;50.046;8.238;2024-03-02T13:28:05;3.90;;;2.60;;
66212;SDS011;53015;50.046;8.238;2024-03-02T13:30:31;3.28;;;2.42;;
66212;SDS011;53015;50.046;8.238;2024-03-02T13:32:57;3.63;;;2.67;;
66212;SDS011;53015;50.046;8.238;2024-03-02T13:35:23;7.10;;;2.50;;
66212;SDS011;53015;50.046;8.238;2024-03-02T13:37:49;5.03;;;2.38;;
66212;SDS011;53015;50.046;8.238;2024-03-02T13:40:14;2.83;;;2.30;;
66212;SDS011;53015;50.046;8.238;2024-03-02T13:42:41;6.13;;;3.88;;
66212;SDS011;53015;50.046;8.238;2024-03-02T13:45:07;5.88;;;2.50;;
66212;SDS011;53015;50.046;8.238;2024-03-02T13:47:33;4.22;;;2.40;;
66212;SDS011;53015;50.046;8.238;2024-03-02T13:49:59;3.00;;;2.10;;
66212;SDS011;53015;50.046;8.238;2024-03-02T13:52:25;4.75;;;2.20;;
66212;SDS011;53015;50.046;8.238;2024-03-02T13:54:51;5.63;;;2.85;;
66212;SDS011;53015;50.046;8.238;2024-03-02T13:57:17;3.53;;;2.30;;
66212;SDS011;53015;50.046;8.238;2024-03-02T13:59:44;3.83;;;1.90;;
66212;SDS011;53015;50.046;8.238;2024-03-02T14:02:10;5.38;;;2.30;;
66212;SDS011;53015;50.046;8.238;2024-03-02T14:04:37;3.80;;;2.38;;
66212;SDS011;53015;50.046;8.238;2024-03-02T14:07:03;4.90;;;2.40;;
66212;SDS011;53015;50.046;8.238;2024-03-02T14:09:29;2.78;;;2.30;;
66212;SDS011;53015;50.046;8.238;2024-03-02T14:11:55;3.17;;;2.20;;
66212;SDS011;53015;50.046;8.238;2024-03-02T14:14:21;4.22;;;2.58;;
66212;SDS011;53015;50.046;8.238;2024-03-02T14:16:48;3.88;;;2.70;;
66212;SDS011;53015;50.046;8.238;2024-03-02T14:19:14;4.57;;;2.50;;
66212;SDS011;53015;50.046;8.238;2024-03-02T14:21:40;3.60;;;2.58;;
66212;SDS011;53015;50.046;8.238;2024-03-02T14:24:06;4.22;;;2.67;;
66212;SDS011;53015;50.046;8.238;2024-03-02T14:26:31;3.25;;;2.15;;
66212;SDS011;53015;50.046;8.238;2024-03-02T14:28:57;3.50;;;2.53;;
66212;SDS011;53015;50.046;8.238;2024-03-02T14:31:22;3.03;;;2.17;;